Time;durP1;ratioP1;P1;durP2;ratioP2;P2;SDS_P1;SDS_P2;PMS_P1;PMS_P2;Temp;Humidity;BMP_temperature;BMP_pressure;BME280_temperature;BME280_humidity;BME280_pressure;Samples;Min_cycle;Max_cycle;Signal;HPM_P1;HPM_P2
2023/09/15 00:01:13;;;;;;;4.63;3.25;;;11.60;99.90;;;;;;4973027;28;20050;-81
2023/09/15 00:03:39;;;;;;;6.63;3.25;;;11.60;99.90;;;;;;5010460;28;20038;-81
2023/09/15 00:06:05;;;;;;;5.75;3.53;;;11.60;99.90;;;;;;4988914;28;20096;-81
2023/09/15 00:08:31;;;;;;;5.88;3.30;;;11.60;99.90;;;;;;5006540;28;20041;-81
2023/09/15 00:10:56;;;;;;;6.28;2.97;;;11.50;99.90;;;;;;4991295;28;20048;-81
2023/09/15 00:13:22;;;;;;;4.45;2.92;;;11.50;99.90;;;;;;5029051;28;20542;-81
2023/09/15 00:15:50;;;;;;;5.43;3.35;;;11.50;99.90;;;;;;5013851;28;20149;-81
2023/09/15 00:18:16;;;;;;;4.30;3.35;;;11.40;99.90;;;;;;5008723;28;20701;-81
2023/09/15 00:20:42;;;;;;;6.78;3.20;;;11.40;99.90;;;;;;4989630;28;20162;-81
2023/09/15 00:23:07;;;;;;;3.33;2.95;;;11.40;99.90;;;;;;4991291;28;20057;-81
2023/09/15 00:25:33;;;;;;;5.22;3.65;;;11.40;99.90;;;;;;5008317;28;20081;-81
2023/09/15 00:28:02;;;;;;;6.15;3.95;;;11.40;99.90;;;;;;5009907;28;20504;-81
2023/09/15 00:30:32;;;;;;;6.10;3.53;;;11.40;99.90;;;;;;5010918;28;20076;-81
2023/09/15 00:32:58;;;;;;;4.78;3.70;;;11.30;99.90;;;;;;4989492;28;20092;-79
2023/09/15 00:35:27;;;;;;;5.13;3.22;;;11.30;99.90;;;;;;5005698;28;20061;-80
2023/09/15 00:37:55;;;;;;;8.05;3.80;;;11.30;99.90;;;;;;5007565;28;20133;-80
2023/09/15 00:40:22;;;;;;;5.80;3.72;;;11.20;99.90;;;;;;5005315;28;20084;-80
2023/09/15 00:42:50;;;;;;;4.75;3.30;;;11.20;99.90;;;;;;4987117;28;20042;-80
2023/09/15 00:45:21;;;;;;;6.05;3.78;;;11.20;99.90;;;;;;5004545;28;20053;-81
2023/09/15 00:47:56;;;;;;;9.13;3.80;;;11.20;99.90;;;;;;5004656;28;20519;-81
2023/09/15 00:50:25;;;;;;;6.47;3.78;;;11.20;99.90;;;;;;5006861;28;20053;-80
2023/09/15 00:53:09;;;;;;;4.82;3.70;;;11.10;99.90;;;;;;4988961;28;20208;-81
2023/09/15 00:55:36;;;;;;;6.63;4.53;;;11.10;99.90;;;;;;5003974;28;20041;-81
2023/09/15 00:58:03;;;;;;;7.45;3.92;;;11.10;99.90;;;;;;5005271;28;20064;-81
2023/09/15 01:00:31;;;;;;;5.55;3.50;;;11.10;99.90;;;;;;4988171;28;20046;-80
2023/09/15 01:02:57;;;;;;;4.55;3.65;;;11.10;99.90;;;;;;4991436;28;20255;-81
2023/09/15 01:05:24;;;;;;;5.28;3.30;;;11.10;99.90;;;;;;5004772;28;20590;-81
2023/09/15 01:07:52;;;;;;;7.32;2.92;;;11.10;99.90;;;;;;5004616;28;20170;-81
2023/09/15 01:10:19;;;;;;;6.22;3.38;;;11.60;99.90;;;;;;5007946;28;20081;-80
2023/09/15 01:12:46;;;;;;;5.68;3.40;;;11.10;99.90;;;;;;5007240;28;20156;-81
2023/09/15 01:15:12;;;;;;;9.30;3.60;;;11.00;99.90;;;;;;5004401;28;20061;-80
2023/09/15 01:18:00;;;;;;;6.75;3.60;;;11.00;99.90;;;;;;4990024;28;20049;-81
2023/09/15 01:20:40;;;;;;;7.47;4.30;;;10.90;99.90;;;;;;5005410;28;20034;-80
2023/09/15 01:23:26;;;;;;;6.03;3.40;;;10.90;99.90;;;;;;5004514;28;20052;-81
2023/09/15 01:25:59;;;;;;;4.85;3.58;;;10.90;99.90;;;;;;5004846;28;20062;-81
2023/09/15 01:29:08;;;;;;;3.90;3.35;;;10.90;99.90;;;;;;5005094;28;20042;-81
2023/09/15 01:31:35;;;;;;;8.32;4.07;;;10.90;99.90;;;;;;4973773;28;20066;-81
2023/09/15 01:34:01;;;;;;;6.03;3.70;;;10.80;99.90;;;;;;5009737;28;20141;-81
2023/09/15 01:36:26;;;;;;;6.30;3.72;;;10.90;99.90;;;;;;4989550;28;20121;-80
2023/09/15 01:38:52;;;;;;;6.25;4.00;;;10.80;99.90;;;;;;4981084;28;20116;-81
2023/09/15 01:41:17;;;;;;;6.35;4.07;;;10.80;99.90;;;;;;4991116;28;20056;-80
2023/09/15 01:43:43;;;;;;;6.28;4.35;;;10.80;99.90;;;;;;4990232;28;20061;-81
2023/09/15 01:46:08;;;;;;;5.82;4.20;;;10.80;99.90;;;;;;5004246;28;20034;-81
2023/09/15 01:48:35;;;;;;;5.40;3.70;;;10.80;99.90;;;;;;5007212;28;21560;-81
2023/09/15 01:51:02;;;;;;;6.53;3.90;;;10.80;99.90;;;;;;5010231;28;20037;-81
2023/09/15 01:53:28;;;;;;;4.45;3.55;;;10.70;99.90;;;;;;5000940;28;20822;-81
2023/09/15 01:55:54;;;;;;;7.15;3.90;;;10.70;99.90;;;;;;5007692;28;20050;-81
2023/09/15 01:58:20;;;;;;;7.18;3.50;;;10.70;99.90;;;;;;4989709;28;20061;-81
2023/09/15 02:00:46;;;;;;;5.88;3.13;;;10.70;99.90;;;;;;5007107;28;20050;-81
2023/09/15 02:03:12;;;;;;;8.65;3.63;;;10.70;99.90;;;;;;5012885;28;20529;-81
2023/09/15 02:05:38;;;;;;;5.28;4.07;;;10.70;99.90;;;;;;5009051;28;20048;-81
2023/09/15 02:08:04;;;;;;;6.32;3.70;;;10.60;99.90;;;;;;5015487;28;20033;-81
2023/09/15 02:10:29;;;;;;;6.30;3.83;;;10.60;99.90;;;;;;5025667;28;20039;-81
2023/09/15 02:12:55;;;;;;;6.22;3.60;;;10.60;99.90;;;;;;5020647;28;20042;-81
2023/09/15 02:15:21;;;;;;;10.32;4.18;;;10.60;99.90;;;;;;5025893;28;20432;-81
2023/09/15 02:17:49;;;;;;;8.10;3.85;;;10.60;99.90;;;;;;5012766;28;20053;-80
2023/09/15 02:20:18;;;;;;;5.28;3.78;;;10.50;99.90;;;;;;5006810;28;20050;-81
2023/09/15 02:22:44;;;;;;;4.22;3.25;;;10.50;99.90;;;;;;5027949;28;20080;-81
2023/09/15 02:25:10;;;;;;;6.22;3.53;;;10.50;99.90;;;;;;5027456;28;20494;-80
2023/09/15 02:27:39;;;;;;;9.30;3.53;;;10.40;99.90;;;;;;4991200;28;20546;-80
2023/09/15 02:30:06;;;;;;;7.53;3.20;;;10.40;99.90;;;;;;5008754;28;20128;-80
2023/09/15 02:32:32;;;;;;;7.18;3.72;;;10.40;99.90;;;;;;5011079;28;20053;-81
2023/09/15 02:34:57;;;;;;;6.88;3.72;;;10.40;99.90;;;;;;5009899;28;20041;-80
2023/09/15 02:37:23;;;;;;;4.32;3.58;;;10.40;99.90;;;;;;5022346;28;20150;-80
2023/09/15 02:39:48;;;;;;;4.53;3.28;;;10.40;99.90;;;;;;5009795;28;20045;-80
2023/09/15 02:42:14;;;;;;;8.23;4.00;;;10.30;99.90;;;;;;5010474;28;20038;-80
2023/09/15 02:44:42;;;;;;;5.93;3.70;;;10.30;99.90;;;;;;5008254;28;20139;-81
2023/09/15 02:47:07;;;;;;;4.85;3.65;;;10.30;99.90;;;;;;5009199;28;20040;-81
2023/09/15 02:49:33;;;;;;;6.75;3.83;;;10.30;99.90;;;;;;5010260;28;20046;-81
2023/09/15 02:52:01;;;;;;;7.57;3.72;;;10.20;99.90;;;;;;5000394;28;20056;-81
2023/09/15 02:54:27;;;;;;;4.22;3.65;;;10.20;99.90;;;;;;5009056;28;20077;-81
2023/09/15 02:56:52;;;;;;;7.20;3.97;;;10.50;99.90;;;;;;5019135;28;20065;-81
2023/09/15 02:59:18;;;;;;;7.22;3.53;;;10.20;99.90;;;;;;5009538;28;20046;-81
2023/09/15 03:01:43;;;;;;;5.38;4.03;;;10.10;99.90;;;;;;5018422;28;20042;-81
2023/09/15 03:04:09;;;;;;;6.22;3.65;;;10.10;99.90;;;;;;5002957;28;20049;-81
2023/09/15 03:06:34;;;;;;;6.05;3.80;;;10.10;99.90;;;;;;5008711;28;20041;-81
2023/09/15 03:09:00;;;;;;;5.63;3.47;;;10.10;99.90;;;;;;5030705;28;20844;-80
2023/09/15 03:11:26;;;;;;;6.65;3.72;;;10.10;99.90;;;;;;5020539;28;20049;-81
2023/09/15 03:13:52;;;;;;;6.60;3.92;;;10.00;99.90;;;;;;5018876;28;20127;-81
2023/09/15 03:16:18;;;;;;;6.97;3.95;;;10.00;99.90;;;;;;5022662;28;20049;-81
2023/09/15 03:18:46;;;;;;;4.30;3.55;;;10.00;99.90;;;;;;5005977;28;20048;-81
2023/09/15 03:21:12;;;;;;;5.43;3.47;;;10.00;99.90;;;;;;4990981;28;20454;-80
2023/09/15 03:23:38;;;;;;;8.50;3.88;;;10.00;99.90;;;;;;5026118;28;20038;-81
2023/09/15 03:26:04;;;;;;;5.72;3.97;;;10.00;99.90;;;;;;5014915;28;20046;-81
2023/09/15 03:28:35;;;;;;;6.72;3.90;;;10.00;99.90;;;;;;5014931;28;20034;-81
2023/09/15 03:31:03;;;;;;;9.38;4.30;;;10.00;99.90;;;;;;5009296;28;20554;-81
2023/09/15 03:33:30;;;;;;;6.22;4.13;;;9.90;99.90;;;;;;4992351;28;20099;-81
2023/09/15 03:35:56;;;;;;;5.20;3.83;;;9.90;99.90;;;;;;5009078;28;20044;-81
2023/09/15 03:38:22;;;;;;;5.38;4.13;;;9.90;99.90;;;;;;5009075;28;20057;-81
2023/09/15 03:40:47;;;;;;;7.25;4.05;;;9.80;99.90;;;;;;5011812;28;20053;-81
2023/09/15 03:43:13;;;;;;;6.82;4.32;;;9.80;99.90;;;;;;5026525;28;20049;-81
2023/09/15 03:45:38;;;;;;;4.80;3.50;;;9.80;99.90;;;;;;5013803;28;20057;-82
2023/09/15 03:48:04;;;;;;;4.75;3.58;;;9.80;99.90;;;;;;5010630;28;20049;-81
2023/09/15 03:50:32;;;;;;;8.07;4.15;;;9.80;99.90;;;;;;5028868;28;20048;-81
2023/09/15 03:52:57;;;;;;;7.18;4.32;;;9.80;99.90;;;;;;5018852;28;20514;-81
2023/09/15 03:55:23;;;;;;;6.20;4.63;;;9.70;99.90;;;;;;4997119;28;20046;-81
2023/09/15 03:57:49;;;;;;;6.38;4.13;;;9.70;99.90;;;;;;5007926;28;20116;-81
2023/09/15 04:00:17;;;;;;;5.90;4.10;;;9.70;99.90;;;;;;5007823;28;20038;-81
2023/09/15 04:02:43;;;;;;;6.10;4.55;;;9.70;99.90;;;;;;4990266;28;20129;-80
2023/09/15 04:05:10;;;;;;;5.82;4.22;;;9.70;99.90;;;;;;5008132;28;20096;-81
2023/09/15 04:07:37;;;;;;;12.05;4.63;;;9.70;99.90;;;;;;5008101;28;20052;-81
2023/09/15 04:10:05;;;;;;;7.97;4.43;;;9.70;99.90;;;;;;4992698;28;20566;-80
2023/09/15 04:12:32;;;;;;;6.53;4.07;;;9.70;99.90;;;;;;5007502;28;20123;-81
2023/09/15 04:14:58;;;;;;;7.70;4.50;;;9.70;99.90;;;;;;5006197;28;20077;-81
2023/09/15 04:17:24;;;;;;;7.20;4.50;;;9.60;99.90;;;;;;4990384;28;21613;-80
2023/09/15 04:19:49;;;;;;;6.50;4.72;;;9.60;99.90;;;;;;5004865;28;20057;-80
2023/09/15 04:22:15;;;;;;;7.63;4.57;;;9.60;99.90;;;;;;5008075;28;20513;-80
2023/09/15 04:24:41;;;;;;;7.43;4.38;;;9.60;99.90;;;;;;5005614;28;20179;-80
2023/09/15 04:27:06;;;;;;;7.25;4.55;;;9.60;99.90;;;;;;5019652;28;20037;-80
2023/09/15 04:29:32;;;;;;;5.53;4.53;;;9.60;99.90;;;;;;5010623;28;20059;-80
2023/09/15 04:31:58;;;;;;;6.53;4.32;;;9.60;99.90;;;;;;5007752;28;20096;-80
2023/09/15 04:34:24;;;;;;;7.93;4.65;;;9.60;99.90;;;;;;5005930;28;20045;-80
2023/09/15 04:36:50;;;;;;;9.15;4.80;;;9.60;99.90;;;;;;4989267;28;20045;-80
2023/09/15 04:39:16;;;;;;;7.00;4.68;;;9.60;99.90;;;;;;4989885;28;20042;-81
2023/09/15 04:41:42;;;;;;;9.82;5.13;;;9.50;99.90;;;;;;5008310;28;20051;-80
2023/09/15 04:44:08;;;;;;;8.98;4.75;;;9.50;99.90;;;;;;5006455;28;20069;-80
2023/09/15 04:46:33;;;;;;;6.45;4.68;;;9.50;99.90;;;;;;5010315;28;20115;-81
2023/09/15 04:48:59;;;;;;;7.07;4.32;;;9.50;99.90;;;;;;5011022;28;20059;-81
2023/09/15 04:51:25;;;;;;;8.52;4.50;;;9.50;99.90;;;;;;5006464;28;20030;-81
2023/09/15 04:53:50;;;;;;;6.13;5.15;;;9.50;99.90;;;;;;5009836;28;20498;-81
2023/09/15 04:56:16;;;;;;;9.23;4.85;;;9.50;99.90;;;;;;5015485;28;20068;-81
2023/09/15 04:58:45;;;;;;;9.57;4.53;;;9.50;99.90;;;;;;4992013;28;20045;-80
2023/09/15 05:01:15;;;;;;;8.90;4.60;;;9.50;99.90;;;;;;5005396;28;20456;-81
2023/09/15 05:03:41;;;;;;;6.50;5.07;;;9.50;99.90;;;;;;4989971;28;20489;-80
2023/09/15 05:06:06;;;;;;;6.78;4.50;;;9.60;99.90;;;;;;5006996;28;20187;-81
2023/09/15 05:08:33;;;;;;;8.07;4.80;;;9.40;99.90;;;;;;5006891;28;20046;-81
2023/09/15 05:10:58;;;;;;;6.07;4.18;;;9.40;99.90;;;;;;5015092;28;20095;-81
2023/09/15 05:13:25;;;;;;;9.77;4.35;;;9.40;99.90;;;;;;5013088;28;20109;-80
2023/09/15 05:15:50;;;;;;;7.43;4.88;;;9.40;99.90;;;;;;5006987;28;20086;-80
2023/09/15 05:18:16;;;;;;;7.28;5.18;;;9.40;99.90;;;;;;5008122;28;20511;-80
2023/09/15 05:20:43;;;;;;;7.00;4.70;;;9.40;99.90;;;;;;5005290;28;20046;-81
2023/09/15 05:23:08;;;;;;;6.47;4.80;;;9.40;99.90;;;;;;4991728;28;20049;-80
2023/09/15 05:25:34;;;;;;;8.07;4.32;;;9.40;99.90;;;;;;5000719;28;20361;-80
2023/09/15 05:28:01;;;;;;;6.45;4.80;;;9.50;99.90;;;;;;5019578;28;20037;-80
2023/09/15 05:30:29;;;;;;;7.22;4.93;;;9.50;99.90;;;;;;5024314;28;20049;-80
2023/09/15 05:32:55;;;;;;;5.50;4.40;;;9.40;99.90;;;;;;5026860;28;20061;-80
2023/09/15 05:35:21;;;;;;;4.82;4.40;;;9.50;99.90;;;;;;5006390;28;20416;-80
2023/09/15 05:37:47;;;;;;;5.88;4.25;;;9.50;99.90;;;;;;5008142;28;20042;-80
2023/09/15 05:40:12;;;;;;;5.18;4.32;;;9.50;99.90;;;;;;5012293;28;20504;-80
2023/09/15 05:42:38;;;;;;;5.50;4.97;;;9.60;99.90;;;;;;5010322;28;20038;-80
2023/09/15 05:45:05;;;;;;;8.65;5.45;;;9.60;99.90;;;;;;5010024;28;20107;-80
2023/09/15 05:47:31;;;;;;;7.15;4.95;;;9.60;99.90;;;;;;5027774;28;20052;-81
2023/09/15 05:50:00;;;;;;;9.77;4.80;;;9.60;99.90;;;;;;5009871;28;20050;-80
2023/09/15 05:52:26;;;;;;;11.65;5.05;;;10.10;99.90;;;;;;4990566;28;20050;-81
2023/09/15 05:54:51;;;;;;;8.13;4.90;;;9.60;99.90;;;;;;5007834;28;20518;-80
2023/09/15 05:57:17;;;;;;;6.47;5.18;;;9.70;99.90;;;;;;5021489;28;20096;-80
2023/09/15 05:59:45;;;;;;;11.30;5.93;;;9.70;99.90;;;;;;5007267;28;20052;-80
2023/09/15 06:02:10;;;;;;;8.20;5.10;;;9.70;99.90;;;;;;5002816;28;20049;-80
2023/09/15 06:04:36;;;;;;;7.38;4.68;;;9.80;99.90;;;;;;5024801;28;20037;-81
2023/09/15 06:07:02;;;;;;;8.02;4.93;;;9.80;99.90;;;;;;5013741;28;20057;-81
2023/09/15 06:09:27;;;;;;;8.45;5.13;;;9.90;99.90;;;;;;5031009;28;20095;-84
2023/09/15 06:11:53;;;;;;;7.50;5.22;;;10.00;99.90;;;;;;5031758;28;20501;-81
2023/09/15 06:14:18;;;;;;;7.22;4.70;;;10.10;99.90;;;;;;5013107;28;20414;-82
2023/09/15 06:16:46;;;;;;;10.10;5.20;;;10.20;99.90;;;;;;4997130;28;20864;-82
2023/09/15 06:19:12;;;;;;;5.97;5.38;;;10.30;99.90;;;;;;5030315;28;20046;-84
2023/09/15 06:21:38;;;;;;;9.25;5.28;;;10.40;99.90;;;;;;5013509;28;20081;-83
2023/09/15 06:24:04;;;;;;;8.40;5.05;;;10.50;99.90;;;;;;4997236;28;20080;-83
2023/09/15 06:26:30;;;;;;;9.68;5.63;;;10.60;99.90;;;;;;4983222;28;20103;-81
2023/09/15 06:28:56;;;;;;;8.50;4.95;;;10.70;99.90;;;;;;4993540;28;20057;-82
2023/09/15 06:31:22;;;;;;;8.00;5.25;;;10.80;99.90;;;;;;4993395;28;20099;-82
2023/09/15 06:33:47;;;;;;;6.22;4.82;;;10.80;99.90;;;;;;4992991;28;20451;-83
2023/09/15 06:36:13;;;;;;;5.20;4.72;;;10.90;99.90;;;;;;4996238;28;20065;-82
2023/09/15 06:38:39;;;;;;;8.90;5.05;;;11.10;99.90;;;;;;5012808;28;20053;-82
2023/09/15 06:41:05;;;;;;;6.00;5.35;;;11.10;99.90;;;;;;5019801;28;20052;-83
2023/09/15 06:43:30;;;;;;;8.07;5.22;;;11.20;99.90;;;;;;5030285;28;20063;-81
2023/09/15 06:45:56;;;;;;;6.25;5.28;;;11.30;99.90;;;;;;5031971;28;20569;-78
2023/09/15 06:48:22;;;;;;;8.55;5.15;;;11.50;99.90;;;;;;5027764;28;20052;-79
2023/09/15 06:50:48;;;;;;;7.20;5.00;;;11.60;99.90;;;;;;4991101;28;20046;-79
2023/09/15 06:53:14;;;;;;;8.13;5.38;;;11.70;99.90;;;;;;5009460;28;20050;-79
2023/09/15 06:55:39;;;;;;;6.07;5.00;;;11.80;99.90;;;;;;5014504;28;20060;-79
2023/09/15 06:58:05;;;;;;;6.25;4.80;;;11.90;99.90;;;;;;5028341;28;20041;-79
2023/09/15 07:00:30;;;;;;;8.57;5.22;;;12.00;99.90;;;;;;5024576;28;20103;-79
2023/09/15 07:02:56;;;;;;;7.28;4.97;;;12.10;99.90;;;;;;5029305;28;20041;-79
2023/09/15 07:05:21;;;;;;;9.43;4.80;;;12.20;99.90;;;;;;5049045;28;20468;-80
2023/09/15 07:07:47;;;;;;;7.40;4.55;;;12.30;99.90;;;;;;5032091;28;20056;-80
2023/09/15 07:10:12;;;;;;;7.55;4.72;;;12.50;99.90;;;;;;5031206;28;20052;-80
2023/09/15 07:12:38;;;;;;;7.05;5.35;;;12.50;99.90;;;;;;5009717;28;20120;-80
2023/09/15 07:15:05;;;;;;;6.75;5.30;;;12.70;99.90;;;;;;4984869;28;20098;-80
2023/09/15 07:17:30;;;;;;;5.55;4.43;;;12.80;99.90;;;;;;4971344;28;20047;-80
2023/09/15 07:19:56;;;;;;;11.82;4.93;;;12.90;99.90;;;;;;4969977;28;20555;-80
2023/09/15 07:22:21;;;;;;;6.38;4.43;;;13.00;99.90;;;;;;4971341;28;20047;-80
2023/09/15 07:24:47;;;;;;;8.57;4.85;;;13.20;99.90;;;;;;4970682;28;20051;-79
2023/09/15 07:27:13;;;;;;;7.00;4.38;;;13.30;99.90;;;;;;4974101;28;20042;-80
2023/09/15 07:29:38;;;;;;;6.40;4.50;;;13.40;99.90;;;;;;4985790;28;20042;-80
2023/09/15 07:32:05;;;;;;;7.35;4.35;;;13.90;99.90;;;;;;4970818;28;20134;-80
2023/09/15 07:34:30;;;;;;;6.53;4.45;;;13.60;99.90;;;;;;4969696;28;20050;-80
2023/09/15 07:36:56;;;;;;;7.20;3.97;;;13.70;99.90;;;;;;4992833;28;20053;-80
2023/09/15 07:39:22;;;;;;;7.20;4.65;;;13.80;99.90;;;;;;5008199;28;20045;-81
2023/09/15 07:41:47;;;;;;;6.05;4.30;;;13.90;99.90;;;;;;5009596;28;20047;-80
2023/09/15 07:44:14;;;;;;;5.50;4.07;;;14.00;99.90;;;;;;5008697;28;20187;-80
2023/09/15 07:46:40;;;;;;;8.63;4.53;;;14.10;99.90;;;;;;5007739;28;20412;-80
2023/09/15 07:49:07;;;;;;;7.22;3.90;;;14.20;99.90;;;;;;5008614;28;20041;-80
2023/09/15 07:51:33;;;;;;;7.18;3.58;;;14.30;99.90;;;;;;5008027;28;20486;-80
2023/09/15 07:53:58;;;;;;;7.15;4.28;;;14.40;99.90;;;;;;5007217;28;20046;-81
2023/09/15 07:56:24;;;;;;;4.82;3.67;;;14.50;99.90;;;;;;5009414;28;20042;-81
2023/09/15 07:58:50;;;;;;;7.15;4.43;;;14.70;99.90;;;;;;5009699;28;20050;-81
2023/09/15 08:01:16;;;;;;;8.52;4.28;;;14.80;99.90;;;;;;5008729;28;20049;-80
2023/09/15 08:03:42;;;;;;;6.25;3.97;;;14.90;99.90;;;;;;5009801;28;20061;-80
2023/09/15 08:06:08;;;;;;;7.00;3.47;;;14.90;99.90;;;;;;5008924;28;20045;-80
2023/09/15 08:08:34;;;;;;;6.53;3.88;;;15.00;99.90;;;;;;5008296;28;20573;-80
2023/09/15 08:11:00;;;;;;;6.07;4.05;;;15.20;99.90;;;;;;5005130;28;20042;-81
2023/09/15 08:13:26;;;;;;;4.60;3.33;;;15.30;99.90;;;;;;4989593;28;20419;-81
2023/09/15 08:15:52;;;;;;;7.57;3.70;;;15.70;99.90;;;;;;5017815;28;20061;-82
2023/09/15 08:18:24;;;;;;;5.85;3.47;;;15.50;99.90;;;;;;5028447;28;20094;-82
2023/09/15 08:20:49;;;;;;;;;;;15.70;99.90;;;;;;5011183;28;20455;-81
2023/09/15 08:23:15;;;;;;;7.10;3.30;;;15.70;99.90;;;;;;5029070;28;19951;-81
2023/09/15 08:25:42;;;;;;;6.72;3.72;;;15.80;99.90;;;;;;5011429;28;20087;-81
2023/09/15 08:28:08;;;;;;;5.05;3.40;;;16.00;99.90;;;;;;5033793;28;20066;-81
2023/09/15 08:30:35;;;;;;;6.90;3.10;;;16.00;99.90;;;;;;5048815;28;20049;-82
2023/09/15 08:33:01;;;;;;;4.72;3.05;;;16.20;99.90;;;;;;5048757;28;20155;-80
2023/09/15 08:35:26;;;;;;;8.82;3.75;;;16.20;99.90;;;;;;5048516;28;20144;-82
2023/09/15 08:37:52;;;;;;;8.27;3.65;;;16.40;99.90;;;;;;5030537;28;20037;-81
2023/09/15 08:40:21;;;;;;;4.55;3.00;;;16.70;99.90;;;;;;5030438;28;20052;-81
2023/09/15 08:42:47;;;;;;;5.38;3.00;;;16.50;99.90;;;;;;5044807;28;20072;-81
2023/09/15 08:45:14;;;;;;;6.28;3.33;;;16.60;99.90;;;;;;5015613;28;20033;-81
2023/09/15 08:47:43;;;;;;;5.90;2.90;;;16.90;99.90;;;;;;5047068;28;20052;-81
2023/09/15 08:50:09;;;;;;;5.28;2.80;;;16.90;99.90;;;;;;5029043;28;20123;-82
2023/09/15 08:52:36;;;;;;;7.25;3.00;;;17.10;99.90;;;;;;5028654;28;20052;-82
2023/09/15 08:55:03;;;;;;;5.57;2.55;;;17.20;99.90;;;;;;5028096;28;20095;-81
2023/09/15 08:57:33;;;;;;;6.47;2.85;;;17.30;99.90;;;;;;5010609;28;20044;-81
2023/09/15 08:59:59;;;;;;;4.47;2.30;;;17.60;99.90;;;;;;5026276;28;20183;-80
2023/09/15 09:02:26;;;;;;;4.25;2.30;;;17.50;99.90;;;;;;5010421;28;20132;-81
2023/09/15 09:04:51;;;;;;;4.25;2.70;;;17.70;99.90;;;;;;5010302;28;20503;-81
2023/09/15 09:07:21;;;;;;;5.53;2.53;;;17.70;99.90;;;;;;5028267;28;20045;-81
2023/09/15 09:09:47;;;;;;;5.20;2.35;;;17.80;99.90;;;;;;5007330;28;20049;-81
2023/09/15 09:12:13;;;;;;;7.07;2.67;;;18.00;99.90;;;;;;5047854;28;20080;-80
2023/09/15 09:14:39;;;;;;;5.32;2.70;;;18.00;99.90;;;;;;5047212;28;20075;-81
2023/09/15 09:17:06;;;;;;;4.28;2.20;;;18.10;99.90;;;;;;5028916;28;20053;-81
2023/09/15 09:19:39;;;;;;;6.30;2.13;;;18.10;99.90;;;;;;5048236;28;20051;-83
2023/09/15 09:22:07;;;;;;;3.38;1.85;;;18.20;99.90;;;;;;5047879;28;20057;-81
2023/09/15 09:24:37;;;;;;;3.88;1.95;;;18.20;99.90;;;;;;5032019;28;20768;-81
2023/09/15 09:27:10;;;;;;;4.07;2.40;;;18.30;99.90;;;;;;5036954;28;20041;-82
2023/09/15 09:29:37;;;;;;;5.30;2.35;;;18.40;99.90;;;;;;5046288;28;20399;-81
2023/09/15 09:32:04;;;;;;;4.32;1.85;;;18.40;99.90;;;;;;5032141;28;20538;-81
2023/09/15 09:34:29;;;;;;;4.85;2.15;;;18.50;99.90;;;;;;5050105;28;20049;-81
2023/09/15 09:36:55;;;;;;;7.93;2.70;;;18.60;99.90;;;;;;5051145;28;20403;-82
2023/09/15 09:39:21;;;;;;;3.40;1.98;;;18.70;99.90;;;;;;5042944;28;20454;-81
2023/09/15 09:41:47;;;;;;;8.00;2.10;;;18.80;99.90;;;;;;5005376;28;20041;-82
2023/09/15 09:44:13;;;;;;;5.00;2.33;;;18.80;99.90;;;;;;5024970;28;20072;-87
2023/09/15 09:46:42;;;;;;;4.03;1.88;;;19.10;99.90;;;;;;5008612;28;20042;-87
2023/09/15 09:49:10;;;;;;;4.70;2.20;;;19.00;99.90;;;;;;5019058;28;21328;-86
2023/09/15 09:51:35;;;;;;;6.95;2.58;;;19.00;99.90;;;;;;5027693;28;20599;-86
2023/09/15 09:54:02;;;;;;;4.78;2.13;;;19.10;99.90;;;;;;5045237;28;20145;-87
2023/09/15 09:56:31;;;;;;;3.78;2.10;;;19.60;99.90;;;;;;5031577;28;20045;-84
2023/09/15 09:59:15;;;;;;;2.78;2.28;;;19.20;99.90;;;;;;5031364;28;20049;-83
2023/09/15 10:01:41;;;;;;;4.45;2.25;;;19.30;99.90;;;;;;5010062;28;20496;-85
2023/09/15 10:04:07;;;;;;;5.57;2.17;;;19.60;99.90;;;;;;5011681;28;20182;-84
2023/09/15 10:06:37;;;;;;;4.22;2.40;;;19.40;99.90;;;;;;5028765;28;20151;-85
2023/09/15 10:09:06;;;;;;;3.30;1.98;;;19.00;99.90;;;;;;5032123;28;20090;-84
2023/09/15 10:11:35;;;;;;;3.65;2.42;;;19.40;99.90;;;;;;5051555;28;20037;-84
2023/09/15 10:14:05;;;;;;;4.85;2.05;;;19.40;99.90;;;;;;5050833;28;20044;-83
2023/09/15 10:16:34;;;;;;;4.60;2.40;;;19.70;99.90;;;;;;5046353;28;20178;-82
2023/09/15 10:19:03;;;;;;;4.95;2.10;;;19.50;99.90;;;;;;5026787;28;20796;-83
2023/09/15 10:21:30;;;;;;;3.25;1.95;;;19.60;99.90;;;;;;5029527;28;20080;-83
2023/09/15 10:24:01;;;;;;;5.68;2.25;;;19.70;99.90;;;;;;5031151;28;20396;-84
2023/09/15 10:26:26;;;;;;;3.80;2.20;;;19.80;99.90;;;;;;5012597;28;20552;-83
2023/09/15 10:28:52;;;;;;;5.32;2.60;;;19.80;99.50;;;;;;5030712;28;20049;-84
2023/09/15 10:31:18;;;;;;;2.90;2.10;;;19.90;99.50;;;;;;5025478;28;20034;-84
2023/09/15 10:33:43;;;;;;;4.35;2.35;;;20.00;99.10;;;;;;5021361;28;20049;-82
2023/09/15 10:36:15;;;;;;;3.00;2.10;;;20.10;98.50;;;;;;5020069;28;20053;-82
2023/09/15 10:38:41;;;;;;;4.75;2.00;;;20.20;97.50;;;;;;5031200;28;20085;-82
2023/09/15 10:41:10;;;;;;;3.90;1.95;;;20.10;97.20;;;;;;5030009;28;20084;-84
2023/09/15 10:43:49;;;;;;;9.02;2.20;;;20.10;97.10;;;;;;5027986;28;20049;-84
2023/09/15 10:46:14;;;;;;;6.63;2.35;;;20.20;95.60;;;;;;5019592;28;20085;-84
2023/09/15 10:48:46;;;;;;;5.05;2.22;;;20.10;96.10;;;;;;5029468;28;20085;-84
2023/09/15 10:51:18;;;;;;;7.18;2.38;;;20.10;96.30;;;;;;5028084;28;20448;-84
2023/09/15 10:53:59;;;;;;;6.38;1.95;;;20.30;96.40;;;;;;5012912;28;20415;-84
2023/09/15 10:56:25;;;;;;;3.33;1.80;;;20.30;94.50;;;;;;5031343;28;20051;-86
2023/09/15 10:58:51;;;;;;;4.20;1.92;;;20.40;96.00;;;;;;5030772;28;20033;-86
2023/09/15 11:01:18;;;;;;;4.57;2.05;;;20.40;95.30;;;;;;5050117;28;20733;-86
2023/09/15 11:03:44;;;;;;;3.60;2.13;;;20.50;95.70;;;;;;5048853;28;20045;-86
2023/09/15 11:06:12;;;;;;;3.38;1.88;;;20.50;95.20;;;;;;5005920;28;20053;-87
2023/09/15 11:08:39;;;;;;;5.40;2.10;;;20.50;95.20;;;;;;5010520;28;20061;-86
2023/09/15 11:11:09;;;;;;;5.35;2.17;;;20.60;95.00;;;;;;4976115;28;20480;-86
2023/09/15 11:13:37;;;;;;;4.60;2.00;;;20.60;94.80;;;;;;4992994;28;20125;-84
2023/09/15 11:16:03;;;;;;;4.18;1.88;;;20.60;94.70;;;;;;5033677;28;20131;-86
2023/09/15 11:18:33;;;;;;;4.30;1.70;;;20.60;94.50;;;;;;5034389;28;20045;-83
2023/09/15 11:21:00;;;;;;;4.15;1.90;;;20.70;94.30;;;;;;5012015;28;20053;-85
2023/09/15 11:23:25;;;;;;;3.95;2.00;;;21.00;94.70;;;;;;5026156;28;20116;-85
2023/09/15 11:26:09;;;;;;;5.18;1.77;;;20.80;94.50;;;;;;4993991;28;20062;-84
2023/09/15 11:28:35;;;;;;;3.65;1.88;;;20.90;94.00;;;;;;4992242;28;20399;-84
2023/09/15 11:31:04;;;;;;;5.40;2.45;;;20.90;93.60;;;;;;4991669;28;20434;-83
2023/09/15 11:33:30;;;;;;;3.45;2.03;;;20.90;93.60;;;;;;5014231;28;20046;-84
2023/09/15 11:36:01;;;;;;;3.17;2.00;;;20.80;93.50;;;;;;5004567;28;20064;-83
2023/09/15 11:38:27;;;;;;;4.55;2.10;;;20.80;93.10;;;;;;5009767;28;20440;-85
2023/09/15 11:40:53;;;;;;;6.53;2.03;;;20.60;93.30;;;;;;4992589;28;20080;-81
2023/09/15 11:43:23;;;;;;;2.75;2.00;;;20.40;93.60;;;;;;4992133;28;20120;-82
2023/09/15 11:45:51;;;;;;;3.08;1.88;;;20.20;94.10;;;;;;4992549;28;20054;-82
2023/09/15 11:48:18;;;;;;;4.25;2.13;;;20.10;94.30;;;;;;4977523;28;20068;-83
2023/09/15 11:50:46;;;;;;;3.00;1.90;;;20.10;94.70;;;;;;5024483;28;20073;-82
2023/09/15 11:53:12;;;;;;;3.70;1.90;;;20.60;95.30;;;;;;5007841;28;20046;-83
2023/09/15 11:55:38;;;;;;;6.32;2.22;;;20.60;94.40;;;;;;4991590;28;20052;-83
2023/09/15 11:58:04;;;;;;;4.50;2.15;;;21.00;93.80;;;;;;5009233;28;20053;-82
2023/09/15 12:00:31;;;;;;;4.00;1.98;;;21.00;93.70;;;;;;4989970;28;20042;-84
2023/09/15 12:02:59;;;;;;;3.40;2.03;;;20.90;93.40;;;;;;4982653;28;20379;-81
2023/09/15 12:05:26;;;;;;;6.60;2.58;;;20.90;93.30;;;;;;4993630;28;20041;-84
2023/09/15 12:07:52;;;;;;;3.25;1.85;;;21.20;93.30;;;;;;4981278;28;20377;-84
2023/09/15 12:10:21;;;;;;;4.43;1.92;;;21.20;92.90;;;;;;5011263;28;20049;-83
2023/09/15 12:12:47;;;;;;;5.07;2.38;;;21.30;92.60;;;;;;5029299;28;20120;-82
2023/09/15 12:15:16;;;;;;;3.38;2.08;;;21.00;92.20;;;;;;5005286;28;20054;-82
2023/09/15 12:17:44;;;;;;;3.25;1.90;;;21.30;92.70;;;;;;5003822;28;20135;-83
2023/09/15 12:20:10;;;;;;;3.72;1.92;;;21.00;93.10;;;;;;4996315;28;20103;-83
2023/09/15 12:22:41;;;;;;;6.00;2.05;;;21.10;92.80;;;;;;5011220;28;20072;-87
2023/09/15 12:25:14;;;;;;;6.10;2.55;;;21.00;92.30;;;;;;5005007;28;20042;-84
2023/09/15 12:27:40;;;;;;;5.10;2.28;;;21.00;92.40;;;;;;4990653;28;20602;-84
2023/09/15 12:30:06;;;;;;;5.13;2.15;;;20.90;92.40;;;;;;4997857;28;20038;-84
2023/09/15 12:32:33;;;;;;;3.80;2.05;;;20.90;93.00;;;;;;5027208;28;20039;-84
2023/09/15 12:35:02;;;;;;;2.58;1.92;;;21.00;93.10;;;;;;5012025;28;20100;-81
2023/09/15 12:37:30;;;;;;;3.60;2.25;;;21.30;93.80;;;;;;4990868;28;20104;-85
2023/09/15 12:39:55;;;;;;;6.30;2.15;;;21.20;93.50;;;;;;4990637;28;20045;-84
2023/09/15 12:42:22;;;;;;;7.43;2.50;;;21.30;93.60;;;;;;5013276;28;20033;-85
2023/09/15 12:44:48;;;;;;;5.15;2.13;;;21.40;92.90;;;;;;4993763;28;20458;-85
2023/09/15 12:47:14;;;;;;;4.50;1.80;;;21.40;92.10;;;;;;5010293;28;20060;-85